createdAt,value
2024-03-11T00:01:29.790Z,7.16
2024-03-11T00:03:56.905Z,7.22
2024-03-11T00:06:24.136Z,7.24
2024-03-11T00:08:51.437Z,6.99
2024-03-11T00:11:18.681Z,7.06
2024-03-11T00:13:45.735Z,6.90
2024-03-11T00:16:12.791Z,7.03
2024-03-11T00:18:40.183Z,6.85
2024-03-11T00:21:07.447Z,6.79
2024-03-11T00:23:34.856Z,6.76
2024-03-11T00:26:02.068Z,7.03
2024-03-11T00:28:29.408Z,6.87
2024-03-11T00:30:56.410Z,6.92
2024-03-11T00:33:23.511Z,6.99
2024-03-11T00:45:39.729Z,6.72
2024-03-11T00:48:06.830Z,6.72
2024-03-11T00:50:33.980Z,6.74
2024-03-11T00:53:01.137Z,6.59
2024-03-11T00:55:28.202Z,6.59
2024-03-11T00:57:55.322Z,6.56
2024-03-11T01:00:22.322Z,6.55
2024-03-11T01:02:49.342Z,6.45
2024-03-11T01:05:16.470Z,6.52
2024-03-11T01:07:45.971Z,6.57
2024-03-11T01:10:13.946Z,6.62
2024-03-11T01:12:41.045Z,6.63
2024-03-11T01:15:08.064Z,6.83
2024-03-11T01:17:35.064Z,6.88
2024-03-11T01:20:02.245Z,6.73
2024-03-11T01:22:29.368Z,6.68
2024-03-11T01:24:56.316Z,6.66
2024-03-11T01:27:23.364Z,6.75
2024-03-11T01:29:50.457Z,6.84
2024-03-11T01:32:17.486Z,6.80
2024-03-11T01:34:44.526Z,6.93
2024-03-11T01:37:11.482Z,6.89
2024-03-11T01:39:38.513Z,6.98
2024-03-11T01:42:05.915Z,6.91
2024-03-11T01:44:33.208Z,6.76
2024-03-11T01:47:00.390Z,6.73
2024-03-11T01:49:27.420Z,6.49
2024-03-11T01:51:54.522Z,6.35
2024-03-11T01:54:21.544Z,6.23
2024-03-11T01:56:48.593Z,6.18
2024-03-11T01:59:15.682Z,6.18
2024-03-11T02:01:42.761Z,6.28
2024-03-11T02:04:09.841Z,6.27
2024-03-11T02:06:36.855Z,6.44
2024-03-11T02:09:03.916Z,6.37
2024-03-11T02:11:31.180Z,6.38
2024-03-11T02:13:58.423Z,6.45
2024-03-11T02:16:25.476Z,6.44
2024-03-11T02:18:52.560Z,6.38
2024-03-11T02:21:19.623Z,6.58
2024-03-11T02:23:46.693Z,6.28
2024-03-11T02:26:13.746Z,6.29
2024-03-11T02:28:40.855Z,6.24
2024-03-11T02:31:07.867Z,6.14
2024-03-11T02:33:34.952Z,6.15
2024-03-11T02:36:02.405Z,6.29
2024-03-11T02:38:29.495Z,6.13
2024-03-11T02:40:56.489Z,6.16
2024-03-11T02:43:23.555Z,6.15
2024-03-11T02:45:50.398Z,6.08
2024-03-11T02:48:17.297Z,6.21
2024-03-11T02:50:44.336Z,6.75
2024-03-11T02:53:11.238Z,6.35
2024-03-11T02:55:38.011Z,6.52
2024-03-11T02:58:04.891Z,6.45
2024-03-11T03:00:31.706Z,6.77
2024-03-11T03:02:58.730Z,7.10
2024-03-11T03:05:26.113Z,7.21
2024-03-11T03:07:53.392Z,7.26
2024-03-11T03:10:20.232Z,7.31
2024-03-11T03:12:46.987Z,7.52
2024-03-11T03:15:13.830Z,7.72
2024-03-11T03:17:40.872Z,7.78
2024-03-11T03:20:08.085Z,7.91
2024-03-11T03:25:01.596Z,7.99
2024-03-11T03:27:28.390Z,8.01
2024-03-11T03:29:55.202Z,7.84
2024-03-11T03:32:22.025Z,7.93
2024-03-11T03:34:48.920Z,7.99
2024-03-11T03:37:16.942Z,7.55
2024-03-11T03:39:44.203Z,7.29
2024-03-11T03:42:10.978Z,7.58
2024-03-11T03:44:38.094Z,7.81
2024-03-11T03:47:05.229Z,7.97
2024-03-11T03:49:32.273Z,8.06
2024-03-11T03:51:59.297Z,7.92
2024-03-11T03:54:26.864Z,8.10
2024-03-11T03:56:53.975Z,8.19
2024-03-11T03:59:21.385Z,8.15
2024-03-11T04:01:48.495Z,8.12
2024-03-11T04:04:15.521Z,7.93
2024-03-11T04:06:42.542Z,7.01
2024-03-11T04:09:09.556Z,7.34
2024-03-11T04:11:37.087Z,7.50
2024-03-11T04:14:04.249Z,7.62
2024-03-11T04:16:31.324Z,7.71
2024-03-11T04:18:58.347Z,7.87
2024-03-11T04:21:25.411Z,7.42
2024-03-11T04:23:52.524Z,7.68
2024-03-11T04:26:19.648Z,7.76
2024-03-11T04:28:46.640Z,7.86
2024-03-11T04:31:13.737Z,8.01
2024-03-11T04:33:40.784Z,7.36
2024-03-11T04:36:07.999Z,6.99
2024-03-11T04:38:35.061Z,6.56
2024-03-11T04:41:02.235Z,6.21
2024-03-11T04:43:29.265Z,5.92
2024-03-11T04:45:56.212Z,6.01
2024-03-11T04:48:23.324Z,5.75
2024-03-11T04:50:50.426Z,5.73
2024-03-11T04:53:17.610Z,5.60
2024-03-11T04:55:47.966Z,5.61
2024-03-11T04:58:15.047Z,5.57
2024-03-11T05:00:42.034Z,5.65
2024-03-11T05:03:09.067Z,5.62
2024-03-11T05:05:36.248Z,5.59
2024-03-11T05:08:04.189Z,5.70
2024-03-11T05:10:31.314Z,5.85
2024-03-11T05:12:58.484Z,5.92
2024-03-11T05:15:25.746Z,5.93
2024-03-11T05:17:53.223Z,5.82
2024-03-11T05:20:20.757Z,5.95
2024-03-11T05:22:48.994Z,5.95
2024-03-11T05:25:16.364Z,6.43
2024-03-11T05:27:43.577Z,6.25
2024-03-11T05:30:10.668Z,6.73
2024-03-11T05:32:38.361Z,7.02
2024-03-11T05:35:05.421Z,6.84
2024-03-11T05:37:32.585Z,6.49
2024-03-11T05:39:59.692Z,6.69
2024-03-11T05:42:26.552Z,6.67
2024-03-11T05:44:53.422Z,6.45
2024-03-11T05:47:20.216Z,6.52
2024-03-11T05:49:47.037Z,6.48
2024-03-11T05:52:13.870Z,5.93
2024-03-11T05:54:40.789Z,5.89
2024-03-11T05:57:07.671Z,6.79
2024-03-11T05:59:34.772Z,7.00
2024-03-11T06:02:01.731Z,7.05
2024-03-11T06:04:28.579Z,7.18
2024-03-11T06:06:55.436Z,7.48
2024-03-11T06:09:22.332Z,7.55
2024-03-11T06:11:49.244Z,7.48
2024-03-11T06:14:16.209Z,7.19
2024-03-11T06:16:43.202Z,6.93
2024-03-11T06:19:10.135Z,6.77
2024-03-11T06:21:36.943Z,7.23
2024-03-11T06:24:03.804Z,7.55
2024-03-11T06:26:30.816Z,7.84
2024-03-11T06:28:57.757Z,8.07
2024-03-11T06:31:24.711Z,8.44
2024-03-11T06:33:51.808Z,8.55
2024-03-11T06:36:18.846Z,8.99
2024-03-11T06:38:46.009Z,8.90
2024-03-11T06:41:13.385Z,9.23
2024-03-11T06:43:40.554Z,9.25
2024-03-11T06:46:07.827Z,9.70
2024-03-11T06:48:35.320Z,9.86
2024-03-11T06:51:04.781Z,10.18
2024-03-11T06:53:32.234Z,10.69
2024-03-11T06:55:59.260Z,11.46
2024-03-11T06:58:26.278Z,13.59
2024-03-11T07:00:53.657Z,14.84
2024-03-11T07:03:21.043Z,13.89
2024-03-11T07:05:48.189Z,14.26
2024-03-11T07:08:15.237Z,15.22
2024-03-11T07:10:42.398Z,14.20
2024-03-11T07:13:09.650Z,13.47
2024-03-11T07:15:36.699Z,14.64
2024-03-11T07:18:04.059Z,14.21
2024-03-11T07:20:31.360Z,13.52
2024-03-11T07:22:58.387Z,14.79
2024-03-11T07:25:25.421Z,14.83
2024-03-11T07:27:52.506Z,15.47
2024-03-11T07:30:19.595Z,15.96
2024-03-11T07:32:46.788Z,15.88
2024-03-11T07:35:13.786Z,15.38
2024-03-11T07:37:40.918Z,15.96
2024-03-11T07:40:08.410Z,16.25
2024-03-11T07:42:35.764Z,18.51
2024-03-11T07:45:02.958Z,19.26
2024-03-11T07:47:30.202Z,19.79
2024-03-11T07:49:57.271Z,19.87
2024-03-11T07:52:24.343Z,19.56
2024-03-11T07:54:51.518Z,18.60
2024-03-11T07:57:18.661Z,18.63
2024-03-11T07:59:45.871Z,19.88
2024-03-11T08:02:13.193Z,19.99
2024-03-11T08:04:40.240Z,18.54
2024-03-11T08:07:07.294Z,19.18
2024-03-11T08:09:34.477Z,17.77
2024-03-11T08:12:01.733Z,17.62
2024-03-11T08:14:28.884Z,17.52
2024-03-11T08:16:56.134Z,17.23
2024-03-11T08:19:23.321Z,17.13
2024-03-11T08:21:50.372Z,16.57
2024-03-11T08:24:17.741Z,17.14
2024-03-11T08:26:45.027Z,16.73
2024-03-11T08:29:12.258Z,16.97
2024-03-11T08:31:39.502Z,16.55
2024-03-11T08:34:06.743Z,15.82
2024-03-11T08:36:34.008Z,14.62
2024-03-11T08:39:01.235Z,14.44
2024-03-11T08:41:28.453Z,14.24
2024-03-11T08:43:55.744Z,13.37
2024-03-11T08:46:23.030Z,12.03
2024-03-11T08:48:50.563Z,12.72
2024-03-11T08:51:17.896Z,12.65
2024-03-11T08:53:45.135Z,13.19
2024-03-11T08:56:12.398Z,13.01
2024-03-11T08:58:39.429Z,12.53
2024-03-11T09:01:06.567Z,12.43
2024-03-11T09:03:33.721Z,12.29
2024-03-11T09:06:01.015Z,11.73
2024-03-11T09:08:28.152Z,12.30
2024-03-11T09:10:55.474Z,12.56
2024-03-11T09:13:22.759Z,13.17
2024-03-11T09:15:50.277Z,12.87
2024-03-11T09:18:17.724Z,13.23
2024-03-11T09:20:44.810Z,12.96
2024-03-11T09:23:11.922Z,13.44
2024-03-11T09:25:39.198Z,11.82
2024-03-11T09:28:06.952Z,11.28
2024-03-11T09:30:34.540Z,11.50
2024-03-11T09:33:02.371Z,11.20
2024-03-11T09:35:29.822Z,10.70
2024-03-11T09:37:56.979Z,10.81
2024-03-11T09:40:24.082Z,10.87
2024-03-11T09:42:51.269Z,11.63
2024-03-11T09:45:18.539Z,11.79
2024-03-11T09:47:45.741Z,12.40
2024-03-11T09:50:13.118Z,12.56
2024-03-11T09:52:40.290Z,12.81
2024-03-11T09:55:09.924Z,12.86
2024-03-11T09:57:38.324Z,12.68
2024-03-11T10:00:05.679Z,13.11
2024-03-11T10:02:32.855Z,13.41
2024-03-11T10:05:00.051Z,13.37
2024-03-11T10:07:27.365Z,13.62
2024-03-11T10:09:54.681Z,13.33
2024-03-11T10:12:21.947Z,13.12
2024-03-11T10:14:49.166Z,13.11
2024-03-11T10:17:16.552Z,12.49
2024-03-11T10:19:43.777Z,12.41
2024-03-11T10:22:11.067Z,12.82
2024-03-11T10:24:38.171Z,13.31
2024-03-11T10:27:05.680Z,13.25
2024-03-11T10:29:33.044Z,12.84
2024-03-11T10:32:00.250Z,12.64
2024-03-11T10:34:27.316Z,13.33
2024-03-11T10:36:54.871Z,13.45
2024-03-11T10:39:22.010Z,13.56
2024-03-11T10:41:49.269Z,13.54
2024-03-11T10:44:16.408Z,13.36
2024-03-11T10:46:43.570Z,13.31
2024-03-11T10:49:10.540Z,13.52
2024-03-11T10:51:37.790Z,13.46
2024-03-11T10:54:04.938Z,13.46
2024-03-11T10:56:32.249Z,13.23
2024-03-11T10:58:59.363Z,12.98
2024-03-11T11:01:26.514Z,12.91
2024-03-11T11:03:53.910Z,12.88
2024-03-11T11:06:21.312Z,13.18
2024-03-11T11:08:48.352Z,13.40
2024-03-11T11:11:15.672Z,13.43
2024-03-11T11:13:43.167Z,13.28
2024-03-11T11:16:10.545Z,12.64
2024-03-11T11:18:39.248Z,12.93
2024-03-11T11:21:06.589Z,13.07
2024-03-11T11:23:33.694Z,13.07
2024-03-11T11:26:00.815Z,13.18
2024-03-11T11:28:27.977Z,13.05
2024-03-11T11:30:55.798Z,12.46
2024-03-11T11:33:22.894Z,12.89
2024-03-11T11:35:50.079Z,12.67
2024-03-11T11:38:17.368Z,12.88
2024-03-11T11:40:44.467Z,12.66
2024-03-11T11:43:11.764Z,12.86
2024-03-11T11:45:39.143Z,12.61
2024-03-11T11:48:06.568Z,12.91
2024-03-11T11:50:33.841Z,12.93
2024-03-11T11:53:03.420Z,13.03
2024-03-11T11:55:31.079Z,13.09
2024-03-11T11:57:58.198Z,12.66
2024-03-11T12:00:34.204Z,12.44
2024-03-11T12:03:05.291Z,12.92
2024-03-11T12:05:32.533Z,13.16
2024-03-11T12:07:59.740Z,12.73
2024-03-11T12:10:26.769Z,13.24
2024-03-11T12:12:53.942Z,13.29
2024-03-11T12:15:21.497Z,13.26
2024-03-11T12:17:48.845Z,13.62
2024-03-11T12:20:16.366Z,13.80
2024-03-11T12:22:43.997Z,14.03
2024-03-11T12:25:11.424Z,14.00
2024-03-11T12:27:38.786Z,13.57
2024-03-11T12:30:06.176Z,13.81
2024-03-11T12:32:33.533Z,13.80
2024-03-11T12:35:00.857Z,14.01
2024-03-11T12:37:28.166Z,14.34
2024-03-11T12:39:55.363Z,14.10
2024-03-11T12:42:22.801Z,14.13
2024-03-11T12:44:49.813Z,14.44
2024-03-11T12:47:16.630Z,14.73
2024-03-11T12:49:43.469Z,14.96
2024-03-11T12:52:10.402Z,15.23
2024-03-11T12:54:37.377Z,15.14
2024-03-11T12:57:04.320Z,15.54
2024-03-11T12:59:31.230Z,15.37
2024-03-11T13:01:58.249Z,15.35
2024-03-11T13:04:25.128Z,15.58
2024-03-11T13:06:52.330Z,15.29
2024-03-11T13:09:19.362Z,15.46
2024-03-11T13:11:46.333Z,15.76
2024-03-11T13:14:13.253Z,15.48
2024-03-11T13:16:40.172Z,15.69
2024-03-11T13:19:09.264Z,15.74
2024-03-11T13:21:36.512Z,15.63
2024-03-11T13:24:03.342Z,15.60
2024-03-11T13:26:30.290Z,15.13
2024-03-11T13:28:57.121Z,15.41
2024-03-11T13:31:24.037Z,15.12
2024-03-11T13:33:51.021Z,15.40
2024-03-11T13:36:17.932Z,15.77
2024-03-11T13:38:44.839Z,15.50
2024-03-11T13:41:11.678Z,15.51
2024-03-11T13:43:38.739Z,15.58
2024-03-11T13:46:05.881Z,15.55
2024-03-11T13:48:33.152Z,15.00
2024-03-11T13:51:00.533Z,15.42
2024-03-11T13:53:27.745Z,14.93
2024-03-11T13:55:54.979Z,15.29
2024-03-11T13:58:22.491Z,15.32
2024-03-11T14:00:49.750Z,15.32
2024-03-11T14:03:16.854Z,15.54
2024-03-11T14:05:44.111Z,15.35
2024-03-11T14:08:11.419Z,14.85
2024-03-11T14:10:38.807Z,14.47
2024-03-11T14:13:06.085Z,14.87
2024-03-11T14:15:33.434Z,14.71
2024-03-11T14:18:00.897Z,14.08
2024-03-11T14:20:28.137Z,13.88
2024-03-11T14:22:55.517Z,14.32
2024-03-11T14:25:22.579Z,14.68
2024-03-11T14:27:50.139Z,14.17
2024-03-11T14:30:17.646Z,13.81
2024-03-11T14:32:44.699Z,14.35
2024-03-11T14:35:12.781Z,14.21
2024-03-11T14:37:40.647Z,14.57
2024-03-11T14:40:07.514Z,14.68
2024-03-11T14:52:13.354Z,14.31
2024-03-11T14:54:40.293Z,14.59
2024-03-11T14:57:07.297Z,14.70
2024-03-11T14:59:35.038Z,14.67
2024-03-11T15:02:02.879Z,14.76
2024-03-11T15:04:29.836Z,14.66
2024-03-11T15:06:57.026Z,14.31
2024-03-11T15:09:24.246Z,14.01
2024-03-11T15:11:51.518Z,14.23
2024-03-11T15:14:18.488Z,14.44
2024-03-11T15:16:45.364Z,14.48
2024-03-11T15:19:12.221Z,14.25
2024-03-11T15:21:39.198Z,14.58
2024-03-11T15:24:06.457Z,14.44
2024-03-11T15:26:33.461Z,14.62
2024-03-11T15:29:00.550Z,14.29
2024-03-11T15:31:27.450Z,14.46
2024-03-11T15:33:54.583Z,14.27
2024-03-11T15:36:21.743Z,13.91
2024-03-11T15:38:49.041Z,13.96
2024-03-11T15:41:16.312Z,13.93
2024-03-11T15:43:43.591Z,13.86
2024-03-11T15:46:10.970Z,13.56
2024-03-11T15:48:38.278Z,13.29
2024-03-11T15:51:05.461Z,13.55
2024-03-11T15:53:32.664Z,13.89
2024-03-11T15:55:59.978Z,13.72
2024-03-11T15:58:27.184Z,13.85
2024-03-11T16:00:54.469Z,13.95
2024-03-11T16:03:21.667Z,13.91
2024-03-11T16:05:48.648Z,14.09
2024-03-11T16:08:17.852Z,14.01
2024-03-11T16:10:47.081Z,13.90
2024-03-11T16:13:14.316Z,14.07
2024-03-11T16:15:41.846Z,14.10
2024-03-11T16:18:09.482Z,14.09
2024-03-11T16:20:36.647Z,14.23
2024-03-11T16:23:03.696Z,14.03
2024-03-11T16:25:31.193Z,13.88
2024-03-11T16:27:58.748Z,13.75
2024-03-11T16:30:26.009Z,13.22
2024-03-11T16:32:53.266Z,13.23
2024-03-11T16:35:20.637Z,13.07
2024-03-11T16:37:47.855Z,13.04
2024-03-11T16:40:15.024Z,13.12
2024-03-11T16:42:42.196Z,13.12
2024-03-11T16:45:09.262Z,12.99
2024-03-11T16:47:36.522Z,13.02
2024-03-11T16:50:03.719Z,13.04
2024-03-11T16:52:30.562Z,12.97
2024-03-11T16:54:57.718Z,13.13
2024-03-11T16:57:24.847Z,12.79
2024-03-11T16:59:51.628Z,12.55
2024-03-11T17:02:18.581Z,12.64
2024-03-11T17:04:45.429Z,12.21
2024-03-11T17:07:12.295Z,12.39
2024-03-11T17:09:39.248Z,12.29
2024-03-11T17:12:06.122Z,12.39
2024-03-11T17:14:33.081Z,12.43
2024-03-11T17:16:59.821Z,12.30
2024-03-11T17:19:26.623Z,12.35
2024-03-11T17:21:53.431Z,12.10
2024-03-11T17:24:20.504Z,11.75
2024-03-11T17:26:47.529Z,11.86
2024-03-11T17:29:14.650Z,11.86
2024-03-11T17:31:44.225Z,11.97
2024-03-11T17:34:11.501Z,11.95
2024-03-11T17:36:38.557Z,12.07
2024-03-11T17:39:06.022Z,11.90
2024-03-11T17:41:33.228Z,11.93
2024-03-11T17:44:00.164Z,12.11
2024-03-11T17:46:27.149Z,12.01
2024-03-11T17:48:54.287Z,11.72
2024-03-11T17:51:21.818Z,11.79
2024-03-11T17:53:49.502Z,11.82
2024-03-11T17:56:17.116Z,11.67
2024-03-11T17:58:44.410Z,11.55
2024-03-11T18:01:11.896Z,11.47
2024-03-11T18:03:39.353Z,11.09
2024-03-11T18:06:06.732Z,11.13
2024-03-11T18:08:34.573Z,11.32
2024-03-11T18:11:04.162Z,11.34
2024-03-11T18:13:31.328Z,11.53
2024-03-11T18:15:58.940Z,11.48
2024-03-11T18:18:26.347Z,11.62
2024-03-11T18:20:53.542Z,11.55
2024-03-11T18:23:20.859Z,11.78
2024-03-11T18:25:48.395Z,11.69
2024-03-11T18:28:15.856Z,11.30
2024-03-11T18:30:43.420Z,11.31
2024-03-11T18:33:11.035Z,11.17
2024-03-11T18:35:38.506Z,11.18
2024-03-11T18:38:05.563Z,11.39
2024-03-11T18:40:32.732Z,11.66
2024-03-11T18:43:00.073Z,11.45
2024-03-11T18:45:27.474Z,11.47
2024-03-11T18:47:54.823Z,11.34
2024-03-11T18:50:21.985Z,11.62
2024-03-11T18:52:54.208Z,11.68
2024-03-11T18:55:27.502Z,11.53
2024-03-11T18:57:54.797Z,11.66
2024-03-11T19:00:22.191Z,11.67
2024-03-11T19:02:49.368Z,11.54
2024-03-11T19:05:16.426Z,11.50
2024-03-11T19:07:43.826Z,11.65
2024-03-11T19:10:11.581Z,11.48
2024-03-11T19:12:39.804Z,11.62
2024-03-11T19:15:07.021Z,11.50
2024-03-11T19:17:34.228Z,11.77
2024-03-11T19:20:02.428Z,11.86
2024-03-11T19:22:29.661Z,11.70
2024-03-11T19:24:57.003Z,11.94
2024-03-11T19:27:24.148Z,11.72
2024-03-11T19:29:51.486Z,11.77
2024-03-11T19:32:18.788Z,11.94
2024-03-11T19:34:46.092Z,11.78
2024-03-11T19:37:13.352Z,11.69
2024-03-11T19:39:40.384Z,11.42
2024-03-11T19:42:07.671Z,11.65
2024-03-11T19:44:34.795Z,11.55
2024-03-11T19:47:01.799Z,11.68
2024-03-11T19:49:28.965Z,11.79
2024-03-11T19:51:56.267Z,11.77
2024-03-11T19:54:23.456Z,11.91
2024-03-11T19:56:50.616Z,11.77
2024-03-11T19:59:17.702Z,11.64
2024-03-11T20:01:44.983Z,11.74
2024-03-11T20:04:12.071Z,11.67
2024-03-11T20:06:39.243Z,11.93
2024-03-11T20:09:06.461Z,11.69
2024-03-11T20:11:33.551Z,11.01
2024-03-11T20:14:00.631Z,11.05
2024-03-11T20:16:27.654Z,10.82
2024-03-11T20:18:54.732Z,10.98
2024-03-11T20:21:21.847Z,11.20
2024-03-11T20:23:48.871Z,11.10
2024-03-11T20:26:15.969Z,10.93
2024-03-11T20:28:43.081Z,10.89
2024-03-11T20:31:10.239Z,10.91
2024-03-11T20:33:37.409Z,11.17
2024-03-11T20:36:05.282Z,11.06
2024-03-11T20:38:32.075Z,10.98
2024-03-11T20:40:58.929Z,10.75
2024-03-11T20:43:26.062Z,10.96
2024-03-11T20:45:53.361Z,10.98
2024-03-11T20:48:20.277Z,11.05
2024-03-11T20:50:47.775Z,11.05
2024-03-11T20:53:14.854Z,11.19
2024-03-11T20:55:54.291Z,11.23
2024-03-11T20:58:24.588Z,11.27
2024-03-11T21:00:52.747Z,11.30
2024-03-11T21:03:20.521Z,11.24
2024-03-11T21:05:48.886Z,11.23
2024-03-11T21:08:15.939Z,11.56
2024-03-11T21:10:43.545Z,11.48
2024-03-11T21:13:10.895Z,11.58
2024-03-11T21:15:38.191Z,11.55
2024-03-11T21:18:06.931Z,11.50
2024-03-11T21:20:34.382Z,11.68
2024-03-11T21:23:01.363Z,11.64
2024-03-11T21:25:28.704Z,11.67
2024-03-11T21:27:55.981Z,11.61
2024-03-11T21:30:23.800Z,11.70
2024-03-11T21:32:52.148Z,11.61
2024-03-11T21:35:21.236Z,11.63
2024-03-11T21:37:48.803Z,10.98
2024-03-11T21:40:16.711Z,10.74
2024-03-11T21:42:44.822Z,10.92
2024-03-11T21:45:12.326Z,10.94
2024-03-11T21:47:40.042Z,10.97
2024-03-11T21:50:08.019Z,10.81
2024-03-11T21:52:42.253Z,10.50
2024-03-11T21:55:09.594Z,10.37
2024-03-11T21:57:36.699Z,10.51
2024-03-11T22:00:04.244Z,10.64
2024-03-11T22:02:31.067Z,10.57
2024-03-11T22:04:58.308Z,10.74
2024-03-11T22:07:25.118Z,10.66
2024-03-11T22:09:52.540Z,10.69
2024-03-11T22:12:20.593Z,10.71
2024-03-11T22:14:47.656Z,10.67
2024-03-11T22:17:14.713Z,10.61
2024-03-11T22:19:41.929Z,10.55
2024-03-11T22:22:10.901Z,10.40
2024-03-11T22:24:38.717Z,10.39
2024-03-11T22:27:06.565Z,10.39
2024-03-11T22:29:33.900Z,10.43
2024-03-11T22:32:01.060Z,10.27
2024-03-11T22:34:27.839Z,10.31
2024-03-11T22:36:55.092Z,10.38
2024-03-11T22:39:22.024Z,10.47
2024-03-11T22:41:49.106Z,10.08
2024-03-11T22:44:15.895Z,9.99
2024-03-11T22:46:42.694Z,9.82
2024-03-11T22:49:14.013Z,9.72
2024-03-11T22:51:41.912Z,10.10
2024-03-11T22:54:09.459Z,10.14
2024-03-11T22:56:36.582Z,10.30
2024-03-11T22:59:03.680Z,10.42
2024-03-11T23:01:31.347Z,10.42
2024-03-11T23:03:58.521Z,10.67
2024-03-11T23:06:25.635Z,10.40
2024-03-11T23:08:58.998Z,10.51
2024-03-11T23:11:29.855Z,10.78
2024-03-11T23:13:59.740Z,10.89
2024-03-11T23:16:31.403Z,10.95
2024-03-11T23:18:59.089Z,11.00
2024-03-11T23:21:26.584Z,10.79
2024-03-11T23:23:54.109Z,10.85
2024-03-11T23:26:21.257Z,10.84
2024-03-11T23:28:50.404Z,10.56
2024-03-11T23:31:17.409Z,9.83
2024-03-11T23:33:52.346Z,9.14
2024-03-11T23:36:22.619Z,9.02
2024-03-11T23:38:55.839Z,9.22
2024-03-11T23:41:25.168Z,9.39
2024-03-11T23:43:52.241Z,9.61
2024-03-11T23:46:32.003Z,9.06
2024-03-11T23:48:58.830Z,9.20
2024-03-11T23:51:27.932Z,9.08
2024-03-11T23:53:56.872Z,9.04
2024-03-11T23:56:23.674Z,9.12
2024-03-11T23:58:50.528Z,9.28
